Stations météo

réclame
Mon MeteoGroup
Mont-Rigi, Belgique (6494): Température de l'air & dewpoint: 22.10.2020 15:00:00 - 28.10.2020 15:00:00 (CET)Mont-Rigi, Belgique (6494): Vitesse du vent & gusts: 22.10.2020 15:00:00 - 28.10.2020 15:00:00 (CET)Mont-Rigi, Belgique (6494): Direction du vent: 22.10.2020 15:00:00 - 28.10.2020 15:00:00 (CET)Mont-Rigi, Belgique (6494): reduced air pressure: 22.10.2020 15:00:00 - 28.10.2020 15:00:00 (CET)Mont-Rigi, Belgique (6494): Ensoleillement: 22.10.2020 15:00:00 - 28.10.2020 15:00:00 (CET)Mont-Rigi, Belgique (6494): Quantités de précipitations: 22.10.2020 15:00:00 - 28.10.2020 15:00:00 (CET)
Date & Time tt [°C] td [°C] ff [km/h] ff [knt] fx [km/h] fx [knt] dd ppp [hPa] sd [min] rr [mm]
28.10.2020 15:00:00 8,4 4,5 22 12 47 26 SSW 1009,7 0 0,0
28.10.2020 14:00:00 9,3 4,2 29 16 51 27 SW 1010,0 0 0,0
28.10.2020 13:00:00 8,2 4,8 25 14 46 25 SSW 1010,2 0 0,0
28.10.2020 12:00:00 7,4 4,9 21 12 40 22 SW 1010,3 0 0,0
28.10.2020 11:00:00 7,6 5,9 22 12 40 21 SW 1009,9 0 0,0
28.10.2020 10:00:00 7,0 6,7 20 11 39 21 SW 1009,7 0 0,0
28.10.2020 09:00:00 7,2 7,0 18 10 32 17 SW 1009,1 0 0,0
28.10.2020 08:00:00 7,2 7,1 20 11 34 18 SW 1008,3 0 0,1
28.10.2020 07:00:00 7,2 7,1 22 12 39 21 SW 1007,5 0 0,1
28.10.2020 06:00:00 7,4 7,3 20 11 40 21 SW 1007,1 0 0,1
28.10.2020 05:00:00 7,6 7,6 21 12 34 19 SSW 1005,9 0 0,1
28.10.2020 04:00:00 7,9 7,8 20 11 35 19 SW 1005,8 0 0,7
28.10.2020 03:00:00 - - - - - - - - - -
28.10.2020 02:00:00 7,8 7,7 18 10 34 19 SW 1005,5 0 0,2
28.10.2020 01:00:00 7,5 7,4 22 12 42 23 SW 1005,1 0 0,8
28.10.2020 00:00:00 - - - - - - - - - -
27.10.2020 23:00:00 6,6 6,4 26 14 51 28 SSW 1004,7 0 0,5
27.10.2020 22:00:00 - - - - - - - - - -
27.10.2020 21:00:00 6,2 5,7 27 15 56 30 S 1004,7 0 0,0
27.10.2020 20:00:00 6,2 5,4 35 19 53 29 S 1004,5 0 0,0
27.10.2020 19:00:00 6,1 5,1 32 18 57 31 S 1005,1 0 0,0
27.10.2020 18:00:00 - - - - - - - - - -
27.10.2020 17:00:00 - - - - - - - - - -
27.10.2020 16:00:00 - - - - - - - - - -
27.10.2020 15:00:00 6,1 4,3 24 13 44 24 SSW 1006,5 0 0,0
27.10.2020 14:00:00 - - - - - - - - - -
27.10.2020 13:00:00 - - - - - - - - - -
27.10.2020 12:00:00 5,8 5,7 24 13 40 22 SSW 1007,3 0 0,0
27.10.2020 11:00:00 5,3 5,1 21 11 36 19 SSW 1007,7 0 0,1
27.10.2020 10:00:00 4,9 4,7 19 10 35 19 SSW 1007,5 0 0,2
27.10.2020 09:00:00 - - - - - - - - - -
27.10.2020 08:00:00 4,8 4,5 19 10 36 19 SSW 1007,0 0 0,0
27.10.2020 07:00:00 4,8 4,5 18 10 34 19 SSW 1006,4 0 0,0
27.10.2020 06:00:00 4,9 4,6 16 9 30 16 SSW 1006,0 0 0,0
27.10.2020 05:00:00 5,0 4,6 16 9 31 17 SSW 1005,7 0 0,0
27.10.2020 04:00:00 5,1 4,7 18 10 37 20 SSW 1005,3 0 0,0
27.10.2020 03:00:00 5,2 4,9 21 11 38 20 SSW 1005,3 0 0,0
27.10.2020 02:00:00 5,2 5,0 21 12 36 19 SW 1005,4 0 0,0
27.10.2020 01:00:00 - - - - - - - - - -
27.10.2020 00:00:00 - - - - - - - - - -
26.10.2020 23:00:00 5,2 4,7 19 11 33 18 SSW 1005,4 0 0,0
26.10.2020 22:00:00 - - - - - - - - - -
26.10.2020 21:00:00 - - - - - - - - - -
26.10.2020 20:00:00 5,4 4,7 20 11 34 18 SSW 1004,7 0 0,0
26.10.2020 19:00:00 5,4 4,7 18 10 29 16 SSW 1004,3 0 0,2
26.10.2020 18:00:00 5,9 3,6 16 8 31 17 SSW 1003,8 0 0,0
26.10.2020 17:00:00 6,3 3,3 16 8 29 16 SSW 1003,5 0 0,0
26.10.2020 16:00:00 6,5 2,9 14 7 35 19 SSW 1003,8 0 0,0
26.10.2020 15:00:00 - - - - - - - - - -
26.10.2020 14:00:00 7,4 3,3 20 11 44 24 SW 1002,5 0 0,0
26.10.2020 13:00:00 6,8 3,8 22 12 43 23 SW 1002,8 0 0,0
26.10.2020 12:00:00 6,2 3,7 28 15 48 26 SW 1003,0 0 0,0
26.10.2020 11:00:00 5,3 3,7 30 16 45 25 SW 1003,3 0 0,0
26.10.2020 10:00:00 5,5 5,2 23 12 40 21 SSW 1003,8 0 0,0
26.10.2020 09:00:00 5,1 4,8 24 13 40 22 SW 1003,2 0 0,0
26.10.2020 08:00:00 5,1 4,9 26 14 44 24 SSW 1002,9 0 0,0
26.10.2020 07:00:00 5,5 5,4 18 10 30 16 SSW 1002,4 0 0,0
26.10.2020 06:00:00 5,9 5,7 16 8 32 17 SSW 1002,1 0 0,0
26.10.2020 05:00:00 5,9 5,8 14 8 28 15 SSW 1002,4 0 0,1
26.10.2020 04:00:00 - - - - - - - - - -
26.10.2020 03:00:00 6,0 5,8 13 7 26 14 SSW 1002,8 0 0,1
26.10.2020 02:00:00 - - - - - - - - - -
26.10.2020 01:00:00 7,0 6,9 18 10 35 19 SSW 1003,0 0 0,1
26.10.2020 00:00:00 6,9 6,8 18 10 32 18 SSW 1003,2 0 0,2
25.10.2020 23:00:00 - - - - - - - - - -
25.10.2020 22:00:00 7,0 6,9 22 12 40 21 SSW 1003,7 0 0,0
25.10.2020 21:00:00 - - - - - - - - - -
25.10.2020 20:00:00 7,2 7,1 20 11 35 19 SSW 1004,0 0 0,1
25.10.2020 19:00:00 7,4 7,3 22 12 38 20 SSW 1004,9 0 0,7
25.10.2020 18:00:00 7,6 7,5 18 10 39 21 SSW 1003,8 0 0,7
25.10.2020 17:00:00 7,8 7,7 19 10 39 21 SSW 1003,9 0 1,6
25.10.2020 16:00:00 8,2 8,1 16 9 35 19 SSW 1003,7 0 0,4
25.10.2020 15:00:00 - - - - - - - - - -
25.10.2020 14:00:00 8,3 8,2 19 10 38 20 SSW 1004,2 0 1,7
25.10.2020 13:00:00 - - - - - - - - - -
25.10.2020 12:00:00 - - - - - - - - - -
25.10.2020 11:00:00 8,7 8,2 24 13 38 21 S 1004,4 0 0,0
25.10.2020 10:00:00 8,5 7,9 22 12 42 23 S 1004,7 0 0,0
25.10.2020 09:00:00 8,4 7,8 23 12 43 23 S 1005,9 0 0,0
25.10.2020 08:00:00 8,4 7,9 23 12 47 26 S 1005,5 0 0,0
25.10.2020 07:00:00 8,5 8,2 25 14 45 25 S 1005,7 0 0,0
25.10.2020 06:00:00 - - - - - - - - - -
25.10.2020 05:00:00 - - - - - - - - - -
25.10.2020 04:00:00 9,0 8,7 26 14 46 25 S 1007,2 0 1,1
25.10.2020 03:00:00 9,3 9,0 24 13 43 23 SSW 1007,5 0 0,0
25.10.2020 02:00:00 9,5 9,3 25 14 49 26 S 1008,0 0 0,0
25.10.2020 01:00:00 - - - - - - - - - -
25.10.2020 00:00:00 9,7 9,5 31 17 57 31 S 1009,5 0 0,0
24.10.2020 23:00:00 9,7 9,7 34 19 64 34 S 1009,3 0 0,2
24.10.2020 22:00:00 9,8 9,8 28 15 45 24 S 1010,0 0 0,2
24.10.2020 21:00:00 9,9 9,9 25 13 45 25 SSW 1010,5 0 0,1
24.10.2020 20:00:00 9,8 9,8 22 12 45 24 S 1011,5 0 0,1
24.10.2020 19:00:00 - - - - - - - - - -
24.10.2020 18:00:00 - - - - - - - - - -
24.10.2020 17:00:00 9,5 9,5 22 12 42 23 SSW 1012,5 0 0,0
24.10.2020 16:00:00 9,7 9,7 25 14 45 25 SSW 1013,0 0 0,1
24.10.2020 15:00:00 9,4 9,4 26 14 45 24 SSW 1013,5 0 0,0
24.10.2020 14:00:00 - - - - - - - - - -
24.10.2020 13:00:00 9,0 8,9 22 12 42 23 SSW 1014,5 0 0,0
24.10.2020 12:00:00 8,5 8,5 24 13 42 23 SSW 1015,2 0 0,1
24.10.2020 11:00:00 8,2 8,1 26 14 46 25 SSW 1015,2 0 0,1
24.10.2020 10:00:00 - - - - - - - - - -
24.10.2020 09:00:00 7,8 7,6 21 11 38 20 S 1015,5 0 0,0
24.10.2020 08:00:00 - - - - - - - - - -
24.10.2020 07:00:00 8,5 8,3 14 8 30 16 SSW 1014,6 0 0,0
24.10.2020 06:00:00 8,4 8,3 18 10 32 17 SW 1014,9 0 0,0
24.10.2020 05:00:00 8,3 8,2 19 10 34 19 SW 1015,0 0 0,0
24.10.2020 04:00:00 - - - - - - - - - -
24.10.2020 03:00:00 - - - - - - - - - -
24.10.2020 02:00:00 9,5 9,5 19 10 37 20 SW 1014,7 0 0,0
24.10.2020 01:00:00 9,5 9,5 18 10 35 19 SW 1014,7 0 0,5
24.10.2020 00:00:00 9,5 9,5 18 10 29 16 SW 1014,9 0 1,9
23.10.2020 23:00:00 - - - - - - - - - -
23.10.2020 22:00:00 - - - - - - - - - -
23.10.2020 21:00:00 9,8 9,7 19 10 27 14 SW 1013,8 0 0,0
23.10.2020 20:00:00 - - - - - - - - - -
23.10.2020 19:00:00 10,6 10,5 14 8 24 13 SW 1013,0 0 0,0
23.10.2020 18:00:00 10,8 10,7 14 8 22 12 SW 1012,6 0 0,0
23.10.2020 17:00:00 10,9 10,7 13 7 23 12 SW 1012,1 0 0,0
23.10.2020 16:00:00 11,2 11,1 15 8 23 13 SW 1011,8 0 0,2
23.10.2020 15:00:00 11,0 10,8 13 7 30 16 SW 1011,6 0 2,3
23.10.2020 14:00:00 11,9 11,6 16 9 26 14 SW 1011,4 0 0,1
23.10.2020 13:00:00 11,6 11,4 14 8 29 16 SSW 1011,7 0 0,0
23.10.2020 12:00:00 11,6 11,5 18 10 31 17 SSW 1012,1 0 0,0
23.10.2020 11:00:00 11,2 11,2 13 7 24 13 SSW 1012,3 0 0,0
23.10.2020 10:00:00 - - - - - - - - - -
23.10.2020 09:00:00 - - - - - - - - - -
23.10.2020 08:00:00 - - - - - - - - - -
23.10.2020 07:00:00 11,1 11,1 14 8 21 11 SW 1011,9 0 0,4
23.10.2020 06:00:00 11,2 11,2 12 6 22 12 SSW 1012,2 0 0,8
23.10.2020 05:00:00 11,4 11,4 14 7 22 12 SSW 1012,5 0 0,4
23.10.2020 04:00:00 11,4 11,4 11 6 18 10 SSW 1012,9 0 0,0
23.10.2020 03:00:00 11,5 11,5 14 7 22 12 SSW 1013,4 0 0,0
23.10.2020 02:00:00 11,5 11,5 14 7 29 15 SSW 1013,8 0 0,0
23.10.2020 01:00:00 11,7 11,7 14 8 28 15 SW 1013,7 0 0,0
23.10.2020 00:00:00 11,7 11,7 15 8 26 14 SSW 1013,9 0 0,0
22.10.2020 23:00:00 11,5 11,5 16 9 25 13 SSW 1014,0 0 0,0
22.10.2020 22:00:00 11,6 11,5 16 9 29 15 SSW 1014,2 0 0,0
22.10.2020 21:00:00 11,9 11,7 17 9 29 16 S 1013,9 0 0,0
22.10.2020 20:00:00 11,8 11,5 14 8 29 16 SSW 1013,9 0 0,0
22.10.2020 19:00:00 12,1 11,7 14 8 31 17 S 1013,9 0 0,5
22.10.2020 18:00:00 12,9 11,6 18 10 31 17 SSW 1013,4 0 0,5
22.10.2020 17:00:00 - - - - - - - - - -
22.10.2020 16:00:00 - - - - - - - - - -
22.10.2020 15:00:00 14,8 10,9 18 10 37 20 SSW 1012,3 3 0,0

tt = Température de l'air
td = dewpoint
ff = Vitesse du vent
fx = gusts
dd = Direction du vent
ppp = reduced air pressure
sd = Ensoleillement
rr = Quantités de précipitations

stations d'obs. à proximité